Date,TemperatureHighF,TemperatureAvgF,TemperatureLowF,DewpointHighF,DewpointAvgF,DewpointLowF,HumidityHigh,HumidityAvg,HumidityLow,PressureMaxIn,PressureMinIn,WindSpeedMaxMPH,WindSpeedAvgMPH,GustSpeedMaxMPH,PrecipitationSumIn
2012-1-1,36.9,31.8,27.1,26.0,24.1,22.5,92,73,62,30.64,30.42,10,2,10,0.00
2012-1-2,37.7,29.4,21.0,29.5,24.4,18.2,91,82,66,30.42,30.10,7,0,7,0.00
2012-1-3,40.4,33.0,23.9,34.7,29.3,21.5,93,86,78,30.47,30.25,6,1,6,0.00
2012-1-4,48.0,37.8,28.1,41.7,32.7,26.1,94,82,67,30.38,30.03,17,1,17,0.02
2012-1-5,47.9,40.6,29.7,39.7,30.0,22.8,80,66,48,30.29,30.05,31,5,31,0.00
2012-1-6,36.4,28.4,22.6,29.5,24.9,20.3,92,87,74,30.35,30.24,11,1,12,0.00
2012-1-7,33.3,28.3,22.0,30.7,25.8,19.8,95,90,83,30.53,30.30,3,0,3,0.00
2012-1-8,40.4,31.7,24.6,35.7,29.5,22.8,95,91,81,30.46,30.38,6,1,6,0.06
2012-1-9,40.9,30.6,20.3,34.7,27.9,18.4,94,90,76,30.42,30.08,7,1,8,0.14
2012-1-10,38.9,32.0,22.9,34.2,22.1,9.9,95,70,37,30.60,30.06,23,4,23,0.09
2012-1-11,31.6,22.3,15.8,19.2,14.3,10.2,84,72,57,30.73,30.59,7,1,7,0.00
2012-1-12,30.1,19.0,10.4,22.1,14.6,7.2,88,83,69,30.65,30.42,5,0,5,0.00
2012-1-13,30.1,22.3,12.8,22.6,17.8,9.9,90,83,72,30.48,30.13,4,0,4,0.00
2012-1-14,41.4,29.8,24.0,29.1,22.6,17.3,90,75,56,30.14,29.73,20,2,20,0.00
2012-1-15,34.9,24.5,17.6,22.8,17.1,13.7,86,74,53,30.02,29.92,10,1,10,0.00
2012-1-16,27.9,20.4,8.9,20.1,14.6,5.7,90,79,66,30.15,30.00,17,2,17,0.00
2012-1-17,36.4,30.2,22.6,28.3,21.0,16.4,86,68,60,30.00,29.68,32,8,32,0.00
2012-1-18,23.1,20.7,19.0,18.9,17.0,14.9,89,85,75,29.98,29.79,15,2,15,0.00
2012-1-19,22.2,20.4,18.6,19.7,17.8,16.0,91,89,88,29.89,29.66,7,2,7,0.00
2012-1-20,31.4,25.5,20.5,29.9,23.2,18.3,94,91,89,29.97,29.34,9,2,9,0.01
2012-1-21,35.7,32.7,30.5,32.5,30.1,25.0,95,90,80,29.85,29.23,18,2,18,0.30
2012-1-22,37.2,30.5,24.5,32.7,26.6,21.7,94,86,63,29.99,29.76,17,2,19,0.08
2012-1-23,36.4,28.0,14.3,32.6,25.1,11.7,94,89,74,30.23,29.76,11,1,11,0.22
2012-1-24,41.4,24.2,13.3,38.6,22.0,10.8,95,91,88,30.24,29.80,22,1,22,0.25
2012-1-25,43.2,39.4,33.9,39.2,31.7,27.6,90,74,61,30.21,29.80,32,6,32,0.12
2012-1-26,42.0,35.5,19.8,35.1,26.1,14.9,93,70,44,30.45,29.86,23,4,23,0.02
2012-1-27,35.7,24.3,14.3,23.8,18.4,10.8,89,78,58,30.65,30.45,15,1,15,0.00
2012-1-28,31.7,25.6,15.9,26.2,21.4,13.2,98,84,76,30.53,30.23,4,1,4,0.00
2012-1-29,48.3,38.5,29.9,39.5,32.0,25.3,95,79,49,30.23,29.71,12,2,12,0.58
2012-1-30,47.0,39.6,35.3,39.2,35.2,30.8,95,85,63,30.02,29.70,20,3,20,0.08
2012-1-31,47.1,35.6,29.1,35.3,30.5,26.4,92,82,59,30.11,29.99,12,1,12,0.00
2012-2-1,34.8,32.8,29.2,33.5,31.3,27.2,95,94,91,30.35,29.96,4,0,4,0.35
2012-2-2,36.8,32.0,24.9,32.6,29.5,22.8,100,91,79,30.53,30.34,5,0,5,0.00
2012-2-3,43.6,31.3,24.0,33.2,27.2,21.9,94,85,64,30.51,30.38,8,1,8,0.01
2012-2-4,43.9,30.0,20.5,31.9,24.7,18.3,93,82,59,30.49,30.38,7,1,7,0.01
2012-2-5,43.7,28.8,19.6,30.2,23.5,17.3,92,82,57,30.47,30.33,7,1,7,0.00
2012-2-6,46.9,33.6,20.7,30.2,24.3,18.5,92,71,48,30.37,30.20,13,2,13,0.01
2012-2-7,46.1,36.3,26.3,24.5,22.4,20.0,77,58,41,30.20,30.07,9,3,12,0.00
2012-2-8,33.7,30.3,24.0,30.7,26.2,19.2,94,85,67,30.41,30.15,4,0,7,0.02
2012-2-9,37.9,34.5,32.2,34.0,32.1,30.6,94,91,85,30.44,30.25,7,1,7,0.03
2012-2-10,40.9,35.9,32.5,39.0,34.0,30.7,99,93,91,30.26,30.10,6,1,6,0.06
2012-2-11,39.4,35.5,30.5,38.0,34.0,29.0,96,94,93,30.12,30.07,5,0,5,0.11
2012-2-12,39.5,36.9,34.1,37.4,35.3,32.6,96,94,91,30.07,29.88,10,0,10,0.05
2012-2-13,42.1,35.7,29.6,38.5,33.4,27.5,96,92,80,29.96,29.88,7,0,7,0.00
2012-2-14,32.0,28.1,23.0,30.7,26.5,21.1,95,94,92,30.09,29.94,5,1,5,0.01
2012-2-15,39.4,30.6,23.1,31.2,26.8,20.8,95,86,60,30.41,30.09,9,1,9,0.05
2012-2-16,33.4,27.7,20.6,30.4,25.6,18.6,94,91,83,30.41,30.27,5,1,5,0.02
2012-2-17,38.1,32.6,26.0,33.1,29.9,24.2,95,90,81,30.35,29.89,9,1,9,0.19
2012-2-18,41.2,36.5,33.3,34.3,31.6,28.9,95,83,67,30.01,29.89,25,5,25,0.06
2012-2-19,42.1,34.8,30.3,33.4,28.7,23.6,94,79,57,29.99,29.92,17,2,17,0.06
2012-2-20,36.2,33.2,29.5,31.9,28.6,23.3,93,83,70,30.04,29.90,9,1,9,0.01
2012-2-21,43.9,36.8,32.1,41.7,35.0,30.3,96,93,82,30.01,29.83,15,1,16,0.20
2012-2-22,51.5,42.1,27.4,40.0,32.2,22.6,86,70,35,30.07,29.67,32,6,33,0.00
2012-2-23,44.4,33.1,23.6,31.2,25.3,20.4,91,74,46,30.30,30.07,17,2,17,0.00
2012-2-24,43.0,35.1,26.0,32.3,26.7,22.0,92,72,49,30.27,29.56,13,2,13,0.11
2012-2-25,39.4,33.9,29.9,37.3,30.8,24.5,94,88,74,30.03,29.48,23,4,23,0.26
2012-2-26,35.3,28.4,17.1,27.9,23.3,14.6,91,81,65,30.19,30.03,12,2,13,0.13
2012-2-27,34.4,21.2,10.2,22.4,15.6,7.3,91,80,55,30.25,30.10,10,2,10,0.12
2012-2-28,29.9,19.9,5.3,22.8,15.2,2.0,89,82,72,30.11,29.69,9,2,9,0.02
2012-2-29,38.0,32.4,27.7,29.5,27.0,22.4,94,81,62,29.74,29.60,21,3,21,0.22
2012-3-1,38.2,32.7,27.9,32.2,26.7,22.9,90,79,68,30.13,29.74,11,1,11,0.07
2012-3-9,64.9,43.5,25.1,35.0,27.7,22.2,89,59,26,30.27,29.84,10,2,24,0.00
2012-3-10,52.9,46.6,36.5,35.8,31.5,26.0,69,56,46,29.89,29.62,8,3,16,0.00
2012-3-11,44.5,39.1,34.7,38.4,34.7,27.7,94,84,69,29.77,29.50,9,3,26,0.46
2012-3-12,43.4,34.7,25.2,38.1,29.7,21.8,92,82,65,29.86,29.42,10,4,21,0.05
2012-3-13,47.2,40.7,32.8,40.2,30.6,21.3,88,68,42,29.88,29.25,11,8,33,0.07
2012-3-14,42.4,34.9,26.9,37.9,28.3,20.7,92,77,63,29.97,29.86,6,2,15,0.08
2012-3-15,51.6,46.3,40.5,46.4,42.9,38.0,94,88,79,29.86,29.59,25,5,25,0.34
2012-3-16,51.2,42.4,34.6,39.6,34.3,26.6,93,75,44,29.66,29.50,26,4,26,0.18
2012-3-17,46.1,38.6,28.2,40.0,31.9,24.5,95,78,51,29.60,29.33,21,3,26,0.20
2012-3-18,45.1,33.1,24.0,32.7,26.3,21.4,93,78,46,29.66,29.51,15,2,15,0.01
2012-3-19,42.6,33.7,27.0,26.2,21.7,13.7,89,63,34,29.89,29.65,21,3,21,0.00
2012-3-20,47.7,38.8,31.4,39.1,30.7,19.1,93,74,52,29.88,29.58,34,6,34,0.16
2012-3-21,40.1,36.1,32.8,33.6,31.0,28.4,92,82,64,29.97,29.80,16,3,16,0.02
2012-3-22,33.3,32.1,31.0,30.9,29.9,28.1,94,92,87,30.01,29.68,9,1,9,0.41
2012-3-23,47.4,35.9,28.1,36.5,29.4,25.5,90,78,49,30.20,29.95,12,2,12,0.02
2012-3-24,50.9,38.8,26.9,34.3,30.3,24.6,93,74,48,30.20,29.92,17,2,17,0.00
2012-3-25,65.1,49.3,34.4,41.4,34.5,28.9,81,59,35,29.94,29.56,15,3,15,0.00
2012-3-26,48.4,39.5,32.1,40.4,36.8,30.8,95,90,73,29.86,29.57,12,2,13,0.85
2012-3-27,48.8,39.4,27.7,42.5,35.4,26.2,95,86,67,29.93,29.69,10,1,10,0.06
2012-3-28,52.1,44.0,37.2,42.8,36.9,30.7,99,78,48,29.86,29.65,19,3,20,0.31
2012-3-29,48.4,44.1,40.4,43.8,39.6,34.7,93,84,71,29.84,29.48,24,5,24,0.37
2012-3-30,50.3,45.6,41.8,44.0,40.2,35.9,91,82,67,29.69,29.44,22,6,26,0.26
2012-3-31,51.2,41.9,37.0,44.2,38.4,34.6,93,88,75,29.70,29.33,17,3,17,0.18
2012-4-1,47.5,40.4,33.8,37.6,32.3,25.6,94,75,44,30.15,29.55,29,6,30,0.12
2012-4-2,51.5,39.6,30.8,34.5,30.8,27.6,90,72,45,30.38,30.14,10,2,10,0.00
2012-4-3,62.9,45.3,30.1,38.4,31.5,26.2,87,62,32,30.15,29.73,15,2,16,0.00
2012-4-4,46.0,36.8,32.8,36.0,33.0,30.6,94,86,64,30.03,29.73,18,2,18,0.46
2012-4-5,45.1,35.0,28.6,35.0,30.6,26.1,94,85,60,30.12,30.02,6,1,7,0.02
2012-4-6,47.4,33.9,24.1,37.1,28.8,21.9,95,82,47,30.31,30.08,14,1,14,0.00
2012-4-7,53.8,38.6,26.9,34.8,25.7,18.9,93,65,28,30.37,30.26,10,1,11,0.00
2012-4-8,59.9,45.0,26.3,29.6,25.7,22.1,87,51,27,30.35,30.06,14,4,14,0.00
2012-4-9,66.5,53.7,42.8,38.4,29.5,22.0,68,41,26,30.06,29.87,12,2,12,0.00
2012-4-10,54.1,44.6,40.4,38.5,32.9,30.1,76,63,48,29.87,29.74,7,1,7,0.00
2012-5-6,62.9,49.7,35.1,38.1,34.1,29.9,83,57,35,30.44,30.34,3,1,11,0.00
2012-5-7,68.7,51.3,32.5,42.8,36.7,29.9,90,62,32,30.38,30.12,3,1,10,0.00
2012-5-8,74.6,56.7,38.5,46.4,41.4,35.5,90,62,32,30.12,29.82,4,1,15,0.00
2012-5-9,63.8,55.0,47.1,44.3,32.0,18.1,81,46,20,29.98,29.79,11,6,30,0.00
2012-5-10,58.2,46.7,34.2,29.2,22.2,15.1,70,40,19,30.24,29.98,6,2,20,0.00
2012-5-11,63.1,46.3,27.8,32.9,27.3,23.6,87,54,24,30.33,30.17,4,1,13,0.00
2012-5-12,72.7,54.3,30.8,40.1,33.8,27.0,87,52,22,30.34,30.15,11,1,11,0.00
2012-5-13,79.7,57.8,35.0,47.5,37.9,29.8,87,55,18,30.24,30.01,10,1,10,0.00
2012-5-14,86.3,63.4,39.8,50.8,41.8,33.6,88,53,17,30.10,29.86,10,1,10,0.00
2012-5-15,88.0,66.5,42.6,56.9,45.1,38.4,88,52,21,29.93,29.73,13,1,13,0.00
2012-5-16,79.2,64.5,53.8,46.0,38.5,25.1,69,42,15,29.83,29.72,23,3,25,0.00
2012-5-17,69.7,58.0,45.3,44.3,36.2,25.4,80,47,23,29.80,29.69,23,3,23,0.00
2012-5-18,67.6,54.3,38.9,37.4,29.2,23.5,77,41,21,29.97,29.71,16,2,19,0.00
2012-5-19,70.1,54.9,41.0,38.6,33.6,26.8,80,48,24,30.03,29.96,15,2,16,0.00
2012-5-20,68.5,57.0,42.8,49.2,41.9,36.2,84,60,33,30.03,29.93,15,1,15,0.00
2012-5-21,66.3,56.3,51.4,59.7,51.8,47.8,93,85,67,29.93,29.76,21,3,21,0.28
2012-5-22,62.2,54.0,48.7,49.4,42.6,35.3,85,67,39,29.80,29.74,25,6,25,0.01
2012-5-23,57.9,48.2,41.3,47.4,41.6,37.9,91,78,55,29.85,29.74,21,4,22,0.12
2012-5-24,61.9,50.2,40.2,44.3,39.7,36.3,93,70,42,29.85,29.70,13,2,13,0.01
2012-5-25,65.8,56.6,46.1,39.8,33.4,30.0,71,43,27,29.82,29.75,23,6,23,0.00
2012-5-26,65.5,56.1,45.8,40.6,34.3,31.4,69,45,32,29.83,29.74,26,4,26,0.00
2012-5-27,69.5,55.4,37.0,47.1,39.2,33.0,90,58,33,29.87,29.78,19,2,19,0.00
2012-5-28,69.5,59.0,46.0,46.1,41.6,36.7,81,54,36,29.96,29.81,19,4,19,0.00
2012-5-29,64.3,56.7,47.1,46.4,39.5,33.8,80,54,33,30.00,29.86,21,4,21,0.00
2012-5-30,69.5,57.2,43.2,45.5,40.0,35.8,81,55,34,30.11,30.00,20,3,21,0.00
2012-5-31,66.8,61.0,54.4,54.7,50.3,43.8,83,68,59,30.05,29.92,15,2,15,0.00
2012-6-1,78.1,64.5,52.5,59.8,54.5,49.8,94,73,43,29.92,29.63,16,2,16,0.03
2012-6-2,69.5,59.3,52.1,54.5,51.5,45.5,94,77,44,29.74,29.62,22,3,22,0.29
2012-8-13,96.7,73.5,52.4,57.6,47.5,40.8,80,46,17,29.90,29.74,6,1,16,0.00
2012-8-14,93.2,73.5,50.8,52.4,47.4,42.3,78,44,23,29.80,29.63,5,2,26,0.00
2012-8-15,82.5,73.5,64.4,48.4,46.6,44.4,51,39,29,29.92,29.71,8,5,17,0.00
2012-8-16,88.9,71.5,57.0,50.3,43.1,33.4,65,40,14,29.96,29.85,4,2,11,0.00
2012-8-17,92.8,70.1,47.8,51.9,45.1,40.0,79,47,19,30.01,29.86,3,1,10,0.00
2012-8-18,97.2,74.3,52.0,57.6,49.2,45.0,80,47,18,29.93,29.73,3,1,13,0.00
2012-8-19,95.7,82.8,59.0,56.7,50.3,43.8,73,36,18,29.83,29.68,7,1,7,2.93
2012-8-20,92.6,75.7,60.7,52.2,46.5,38.0,67,40,16,29.89,29.73,12,1,12,0.00
2012-8-21,78.7,67.0,57.5,64.0,54.2,43.6,89,65,46,29.86,29.71,21,2,21,0.16
2012-8-22,76.5,64.4,52.3,55.6,49.5,45.7,88,61,37,29.94,29.75,14,2,14,0.00
2012-8-23,77.9,62.4,46.0,52.5,44.1,34.7,92,57,26,29.90,29.74,19,3,19,0.00
2012-8-24,75.0,60.0,46.2,44.8,37.7,33.9,69,46,25,30.02,29.75,19,2,19,0.00
2012-8-25,79.7,60.1,40.2,48.6,40.3,35.3,87,53,26,30.00,29.75,13,1,13,0.00
2012-8-26,87.5,66.2,45.5,54.6,43.5,37.7,85,49,18,29.78,29.65,13,1,14,0.00
2012-8-27,83.4,68.0,55.3,56.6,45.7,40.8,64,47,26,29.97,29.69,14,2,14,0.00
2012-8-28,83.9,67.1,46.2,54.5,46.0,40.6,86,51,27,29.93,29.75,19,2,19,0.00
2012-8-29,74.2,62.9,50.9,47.1,41.8,38.1,69,47,32,30.00,29.79,19,3,19,0.00
2012-8-30,79.8,59.8,40.7,49.6,41.1,36.3,86,55,23,30.01,29.77,12,1,13,0.00
2012-8-31,84.0,62.3,41.1,50.5,39.8,33.8,87,50,20,29.83,29.68,16,1,16,0.00
2012-9-1,77.0,62.8,50.3,45.1,37.1,31.0,69,42,20,29.96,29.71,18,2,18,0.00
2012-9-2,77.4,60.9,44.5,46.0,37.0,30.6,67,43,23,30.05,29.94,17,2,17,0.00
2012-9-3,80.7,61.3,40.3,46.8,39.2,33.6,84,49,22,30.08,29.91,16,2,16,0.00
2012-9-4,81.2,63.2,44.3,48.2,41.9,38.2,83,50,25,30.11,29.94,15,1,15,0.00
2012-9-5,82.7,62.8,42.8,50.5,43.2,37.5,86,54,24,30.04,29.79,29,2,29,0.00
2012-9-6,76.0,62.6,51.2,48.0,45.1,42.0,78,56,33,30.08,29.89,18,4,18,0.00
2012-9-7,83.3,61.4,42.4,53.2,43.0,38.2,91,57,23,30.23,30.07,9,1,9,0.00
2012-9-8,87.3,64.5,42.1,51.6,41.9,32.9,88,51,15,30.15,29.76,10,1,10,0.00
2012-9-9,82.0,70.4,59.6,52.2,44.3,29.8,63,41,18,29.76,29.66,24,4,24,0.00
2012-9-10,69.2,59.1,49.0,48.8,37.8,22.0,79,49,20,29.98,29.74,31,4,31,0.00
2012-9-11,67.7,49.9,32.7,38.3,29.7,24.4,85,50,21,30.24,29.97,13,1,13,0.00
2012-9-12,71.9,51.2,31.8,39.5,30.8,25.4,82,50,22,30.43,30.23,10,1,10,0.00
2012-9-13,81.7,56.8,35.8,46.9,36.3,30.0,83,51,22,30.39,30.12,9,1,9,0.00
2012-9-14,83.5,60.3,39.1,50.1,39.5,32.9,82,51,22,30.14,29.90,7,1,7,0.00
2012-9-15,82.3,60.9,44.4,47.8,40.8,35.4,78,51,25,30.04,29.92,7,1,7,0.00
2012-9-16,82.8,60.0,40.9,52.1,39.8,31.6,89,53,20,30.14,30.00,11,1,11,0.00
2012-9-17,80.5,58.3,38.7,45.1,37.0,31.8,83,50,20,30.15,30.01,7,1,7,0.00
2012-9-18,85.3,60.9,39.5,48.2,38.4,33.2,82,49,18,30.10,29.93,10,1,10,0.00
2012-9-19,82.6,60.8,42.2,50.9,40.6,34.6,80,51,24,30.10,29.98,7,1,7,0.00
2012-9-20,84.7,61.6,42.6,50.8,42.6,36.7,83,54,22,30.13,29.96,5,1,5,0.00
2012-9-21,87.1,62.5,42.5,55.6,44.4,37.0,86,56,25,30.07,29.86,5,0,5,0.00
2012-9-22,82.5,61.6,44.3,53.0,46.1,39.7,88,60,30,30.00,29.85,7,0,7,0.00
2012-9-23,70.0,61.1,52.9,51.0,47.8,44.0,80,62,48,30.03,29.89,9,1,9,0.00
2012-9-24,75.8,57.9,43.4,54.0,45.4,39.7,91,66,38,30.08,29.89,11,1,11,0.00
2012-9-25,74.3,56.8,42.7,52.7,45.8,39.4,91,69,43,29.99,29.89,14,1,14,0.00
2012-9-26,76.3,56.5,40.9,53.0,43.9,37.8,93,67,31,30.07,29.96,6,0,6,0.00
2012-9-27,79.1,57.6,39.8,54.0,43.5,36.0,91,63,31,30.10,29.91,6,1,6,0.00
2012-9-28,79.6,59.7,40.7,52.8,42.8,36.5,90,58,26,29.98,29.82,12,1,12,0.00
2012-9-29,78.7,63.0,48.9,52.3,45.4,40.5,81,55,34,30.02,29.88,16,2,16,0.00
2012-9-30,76.5,58.8,44.0,47.2,39.5,30.9,88,53,22,30.25,30.00,11,1,11,0.00
2012-10-1,77.6,57.2,37.3,46.4,37.1,29.4,79,50,27,30.29,29.83,16,1,16,0.00
2012-10-2,72.8,56.2,43.8,47.8,34.0,16.5,86,47,19,30.14,29.80,31,5,31,0.00
2012-10-3,60.7,45.4,30.7,37.2,28.7,19.7,87,55,30,30.44,30.13,13,2,13,0.00
2012-10-4,58.9,44.9,31.4,29.4,23.9,18.1,72,47,22,30.35,30.26,19,3,19,0.00
2012-10-5,60.7,41.1,24.0,31.1,21.0,17.2,81,49,22,30.47,30.32,15,1,15,0.00
2012-10-6,65.0,42.3,24.6,33.8,23.3,17.3,80,51,23,30.45,30.21,8,1,8,0.00
2012-10-7,70.7,46.0,26.3,37.5,27.5,20.2,82,53,23,30.25,29.96,9,1,9,0.00
2012-10-8,73.5,49.9,30.8,37.2,30.2,24.1,82,51,22,30.00,29.84,10,1,10,0.00
2012-10-9,70.1,49.0,31.9,43.6,33.2,26.2,85,57,31,30.09,29.93,6,1,6,0.00
2012-10-10,71.5,49.4,31.7,44.1,34.6,27.7,89,61,29,30.02,29.82,6,1,6,0.00
2012-10-11,71.6,48.9,32.2,45.6,35.4,28.2,90,63,31,30.01,29.78,5,1,5,0.00
2012-10-12,65.1,47.8,30.4,45.5,36.2,26.7,92,67,39,29.90,29.76,13,1,13,0.00
2012-10-13,59.9,54.5,51.2,50.4,48.6,45.3,90,81,68,30.13,29.89,14,2,14,0.01
2012-10-14,65.7,57.7,51.7,51.5,49.4,46.4,89,75,51,30.12,29.85,22,2,22,0.05
2012-10-15,66.3,58.2,55.0,55.2,51.5,48.8,94,79,57,29.86,29.50,17,3,17,0.59
2012-10-16,60.2,54.5,41.2,57.0,39.8,28.2,94,61,30,30.04,29.36,33,7,33,0.01
2012-10-17,55.2,42.5,30.9,37.2,31.3,27.1,90,66,38,30.31,30.04,12,1,12,0.00
2012-10-18,61.9,45.6,32.8,40.2,33.8,29.6,89,66,35,30.31,29.83,6,1,6,0.00
2012-10-19,62.2,51.9,42.9,50.8,44.1,35.1,86,75,60,29.84,29.55,25,4,25,0.01
2012-10-20,52.3,45.4,36.9,43.8,31.6,23.2,76,60,36,29.85,29.56,26,5,26,0.00
2012-10-21,47.4,38.3,31.2,37.1,31.6,27.2,90,77,58,29.95,29.84,14,1,14,0.00
2012-10-22,45.6,37.1,28.8,36.0,31.8,26.0,92,82,56,29.87,29.54,17,2,17,0.19
2012-10-23,44.4,36.9,29.2,37.5,32.6,26.9,94,85,67,30.00,29.68,14,1,14,0.06
2012-10-24,46.4,36.5,26.5,39.5,33.0,24.5,94,87,66,30.15,29.99,6,0,6,0.07
2012-10-25,43.4,39.0,37.1,40.8,36.4,34.6,94,90,81,30.45,30.14,5,0,5,0.05
2012-10-26,40.2,36.4,32.8,37.1,34.0,30.5,94,91,87,30.44,30.11,6,0,6,0.07
2012-10-27,43.1,40.2,37.4,41.2,38.5,35.6,95,94,92,30.11,29.87,9,0,9,0.21
2012-10-28,51.4,45.2,40.9,50.0,43.7,39.3,96,95,93,29.92,29.83,7,0,7,0.14
2012-10-29,64.5,52.0,44.3,55.9,46.6,42.9,97,83,58,29.99,29.78,28,3,28,0.30
2012-10-30,52.2,49.2,45.8,50.8,46.7,42.8,95,91,80,29.99,29.85,10,1,10,0.37
2012-10-31,59.0,52.8,49.2,54.0,50.2,47.7,96,91,81,29.88,29.65,13,2,13,0.01
2012-11-1,56.3,48.4,40.7,50.5,44.1,38.7,96,86,63,30.01,29.76,16,1,16,0.21
2012-11-2,54.9,47.6,42.2,47.9,44.0,40.0,93,88,76,30.11,30.01,6,1,6,0.00
2012-11-3,49.7,45.0,38.7,48.6,43.6,36.8,96,95,93,30.14,30.03,5,0,6,0.19
2012-11-4,58.2,52.9,47.3,53.1,49.7,45.9,96,89,80,30.29,30.14,8,0,8,0.01
2012-11-5,59.2,52.3,40.5,53.8,48.5,38.3,94,87,79,30.22,30.12,11,1,11,0.00
2012-11-6,58.6,47.7,40.6,52.0,45.2,39.3,96,91,77,30.20,29.82,11,0,11,0.04
2012-11-7,52.7,44.8,28.8,50.2,33.7,24.8,94,66,44,30.03,29.81,17,3,17,0.01
2012-11-8,44.2,34.2,25.7,32.2,28.5,22.9,93,81,53,29.99,29.71,15,3,15,0.07
2012-11-9,32.0,30.1,27.3,30.1,27.9,23.9,94,91,86,29.96,29.75,5,1,7,0.02
2012-11-10,33.2,26.6,20.9,24.0,20.5,18.2,90,78,58,30.26,29.95,12,2,12,0.03
2012-11-11,31.7,26.5,18.1,27.7,23.6,15.4,93,89,84,30.41,30.26,5,1,5,0.01
2012-11-12,33.6,31.9,29.9,32.0,30.1,27.4,94,93,88,30.35,30.25,4,0,4,0.00
2012-11-13,36.2,34.2,32.7,34.9,32.9,31.3,95,95,94,30.32,30.20,4,0,4,0.48
2012-11-14,35.1,34.1,33.4,34.1,32.9,32.1,96,95,95,30.39,30.19,9,1,9,0.17
2012-11-15,45.2,37.7,33.9,40.3,34.5,32.4,95,88,75,30.39,30.02,5,2,8,0.02
2012-11-16,46.4,37.5,31.0,38.8,34.1,28.7,95,88,74,30.03,29.94,7,1,7,0.00
2012-11-17,47.7,40.0,32.8,43.1,37.5,30.9,95,91,80,29.95,29.55,23,2,23,0.21
2012-11-18,46.8,40.8,33.7,38.2,34.4,31.6,93,78,61,29.93,29.69,22,2,22,0.00
2012-11-19,51.2,45.5,40.3,45.0,41.1,33.9,99,85,67,29.86,29.65,24,4,24,0.59
2012-11-20,50.1,45.8,42.8,48.2,44.0,40.5,96,93,88,29.80,29.66,14,1,14,0.39
2012-11-21,46.5,41.0,34.1,40.7,35.9,29.5,95,82,65,30.20,29.62,30,4,30,0.29
2012-11-22,42.6,34.4,28.0,34.0,30.1,25.5,94,84,66,30.50,30.20,7,1,7,0.00
2012-11-23,42.0,37.8,33.5,40.7,34.3,30.1,95,87,75,30.40,30.05,10,1,10,0.36
2012-11-24,44.7,40.2,34.0,41.9,37.2,31.8,95,89,79,30.15,30.03,15,1,15,0.01
2012-11-25,40.3,33.1,24.0,33.7,29.9,21.7,94,88,68,30.40,30.13,6,0,6,0.00
2012-11-26,38.4,27.7,21.4,33.9,25.1,19.7,95,90,77,30.40,30.24,4,0,4,0.01
2012-11-27,38.7,31.6,27.1,32.0,27.7,25.1,93,86,72,30.30,30.15,8,1,8,0.00
2012-11-28,36.9,31.7,24.5,33.5,29.1,22.5,94,90,83,30.15,29.84,6,0,6,0.10
2012-11-29,40.4,36.3,31.1,39.2,34.9,29.3,96,95,93,29.92,29.65,9,1,9,0.09
2012-11-30,52.4,44.1,40.0,49.2,41.8,38.7,100,92,76,29.66,29.53,17,1,18,0.28
2012-12-1,50.4,43.9,35.8,43.7,38.0,32.3,96,81,52,29.70,29.52,28,3,28,0.11
2012-12-2,47.1,41.0,37.9,41.0,36.7,33.5,95,85,65,29.83,29.20,28,4,28,0.38
2012-12-3,48.9,43.7,39.3,38.9,35.8,33.5,88,74,64,30.06,29.83,26,4,26,0.00
2012-12-4,49.5,44.6,38.8,45.5,40.9,33.2,95,87,67,29.92,29.68,24,3,24,0.32
2012-12-5,48.2,41.0,34.4,46.2,32.5,27.1,95,72,54,30.18,29.67,24,4,24,0.00
2012-12-6,36.9,34.6,32.3,33.4,31.0,27.4,92,86,77,30.16,29.98,14,1,14,0.03
2012-12-7,40.9,34.0,29.3,37.5,31.2,26.5,94,89,78,30.06,29.77,25,2,25,0.12
2012-12-8,36.3,26.8,18.6,26.6,20.7,15.3,92,78,54,30.37,29.95,12,1,12,0.02
2012-12-9,27.9,21.4,14.2,27.5,19.1,11.6,100,91,87,30.51,30.26,4,0,4,0.00
2012-12-10,31.9,29.7,26.4,29.2,27.7,24.6,94,92,89,30.31,30.06,5,0,5,0.02
2012-12-11,36.6,33.5,30.7,34.7,31.8,28.9,95,93,91,30.06,29.59,7,0,7,0.09
2012-12-12,35.1,32.9,32.1,33.8,31.5,30.5,95,95,94,30.00,29.60,5,0,5,0.18
2012-12-13,33.6,31.6,26.2,32.1,30.2,24.6,100,94,93,30.06,29.89,4,0,4,0.02
2012-12-14,32.3,29.5,26.0,30.6,28.0,24.3,95,94,92,29.97,29.82,4,0,4,0.03
2012-12-15,33.6,30.6,29.0,30.9,28.8,27.5,100,93,88,29.97,29.62,4,0,4,0.02
2012-12-16,34.7,31.4,28.8,32.0,29.5,26.5,100,93,86,29.81,29.25,7,0,8,0.00
2012-12-17,39.4,35.8,29.9,37.1,30.3,23.3,96,81,66,29.83,29.16,37,7,37,0.36
2012-12-18,31.0,28.4,25.3,27.0,24.7,22.1,91,86,78,30.03,29.83,11,1,12,0.00
2012-12-19,33.0,28.9,24.8,29.8,25.1,21.4,93,86,64,30.08,29.96,18,1,18,0.00
2012-12-20,40.6,34.3,31.0,32.9,30.4,27.3,94,86,60,29.97,29.77,10,1,10,0.09
2012-12-21,37.2,34.5,32.9,35.8,32.9,31.4,95,94,87,29.95,29.80,6,1,6,0.13
2012-12-22,38.4,34.6,29.0,36.6,33.0,27.2,95,94,92,29.85,29.63,16,2,16,0.10
2012-12-23,40.0,33.6,28.1,35.6,30.7,26.3,95,89,74,29.94,29.64,7,1,7,0.05
2012-12-24,36.7,32.4,30.5,34.8,30.8,29.2,100,94,89,30.20,29.66,6,1,6,0.19
2012-12-25,36.1,30.9,25.5,31.5,28.6,24.0,95,91,79,30.20,29.85,5,1,5,0.00
2012-12-26,34.4,30.4,27.2,30.9,27.4,24.7,93,88,79,29.98,29.83,5,1,5,0.01
2012-12-27,33.7,30.2,28.0,30.9,28.0,26.0,94,91,85,30.19,29.97,7,0,7,0.04
2012-12-28,32.6,29.9,26.7,29.9,27.6,24.4,94,91,86,30.26,30.18,4,0,4,0.00
2012-12-29,26.7,23.9,21.8,24.4,22.0,19.6,94,92,91,30.26,30.24,9,1,9,0.00
2012-12-30,27.2,24.4,21.4,24.1,22.1,19.4,93,91,87,30.39,30.27,2,0,6,0.00
2012-12-31,28.5,23.2,12.7,24.2,20.3,10.1,91,88,82,30.55,30.38,2,1,5,0.01
2013-1-1,25.3,19.7,11.2,22.0,17.1,8.4,92,90,86,30.70,30.54,1,0,4,0.00